Poa, Brazil
Current Conditions -  °F | °C
As of 3:00 PM on Friday 31 Oct 2014 (Local Time) from SBGR Reporting Station
Broken Clouds Broken Clouds  
Wind Chill: 90°   Ceiling: 4500
Heat Index: 90°   Visibility: 6mi
Dew Point: 63°   Wind: 8mph
Humidity: 40%   Direction: 310°NW
Pressure: 29.94"   Gusts: NA
Location:  23.52°S, 46.35°W
Report Text: SBGR 311700Z 31007KT 9999 BKN045 32/17 Q1014
Loading
Personal Weather Stations






























Interactive Weather Map New forecast layout! Learn more

10-Day Weather Forecast

Advertisements
Track Severe Weather on mobile